sensor_id;sensor_type;location;lat;lon;timestamp;temperature;humidity
36548;DHT22;22551;52.206;4.856;2022-10-13T00:02:01;10.50;99.90
36548;DHT22;22551;52.206;4.856;2022-10-13T00:07:03;10.60;99.90
36548;DHT22;22551;52.206;4.856;2022-10-13T00:12:06;10.60;99.90
36548;DHT22;22551;52.206;4.856;2022-10-13T00:17:09;10.60;99.90
36548;DHT22;22551;52.206;4.856;2022-10-13T00:22:11;10.70;99.90
36548;DHT22;22551;52.206;4.856;2022-10-13T00:27:14;10.70;99.90
36548;DHT22;22551;52.206;4.856;2022-10-13T00:32:17;10.70;99.90
36548;DHT22;22551;52.206;4.856;2022-10-13T00:37:20;10.80;99.90
36548;DHT22;22551;52.206;4.856;2022-10-13T00:42:23;10.80;99.90
36548;DHT22;22551;52.206;4.856;2022-10-13T00:47:29;10.80;99.90
36548;DHT22;22551;52.206;4.856;2022-10-13T00:52:33;10.90;99.90
36548;DHT22;22551;52.206;4.856;2022-10-13T00:57:38;10.90;99.90
36548;DHT22;22551;52.206;4.856;2022-10-13T01:02:42;10.90;99.90
36548;DHT22;22551;52.206;4.856;2022-10-13T01:07:46;11.00;99.90
36548;DHT22;22551;52.206;4.856;2022-10-13T01:12:58;11.00;99.90
36548;DHT22;22551;52.206;4.856;2022-10-13T01:18:09;11.00;99.90
36548;DHT22;22551;52.206;4.856;2022-10-13T01:23:29;11.10;99.90
36548;DHT22;22551;52.206;4.856;2022-10-13T01:29:28;11.10;99.90
36548;DHT22;22551;52.206;4.856;2022-10-13T01:34:51;11.20;99.90
36548;DHT22;22551;52.206;4.856;2022-10-13T01:40:03;11.20;99.90
36548;DHT22;22551;52.206;4.856;2022-10-13T01:45:12;11.20;99.90
36548;DHT22;22551;52.206;4.856;2022-10-13T01:50:17;11.20;99.90
36548;DHT22;22551;52.206;4.856;2022-10-13T01:55:21;11.20;99.90
36548;DHT22;22551;52.206;4.856;2022-10-13T02:00:28;11.20;99.90
36548;DHT22;22551;52.206;4.856;2022-10-13T02:05:43;11.20;99.90
36548;DHT22;22551;52.206;4.856;2022-10-13T02:10:51;11.20;99.90
36548;DHT22;22551;52.206;4.856;2022-10-13T02:15:59;11.20;99.90
36548;DHT22;22551;52.206;4.856;2022-10-13T02:21:03;11.20;99.90
36548;DHT22;22551;52.206;4.856;2022-10-13T02:26:05;11.20;99.90
36548;DHT22;22551;52.206;4.856;2022-10-13T02:31:08;11.20;99.90
36548;DHT22;22551;52.206;4.856;2022-10-13T02:36:10;11.20;99.90
36548;DHT22;22551;52.206;4.856;2022-10-13T02:41:13;11.20;99.90
36548;DHT22;22551;52.206;4.856;2022-10-13T02:46:16;11.20;99.90
36548;DHT22;22551;52.206;4.856;2022-10-13T02:51:18;11.20;99.90
36548;DHT22;22551;52.206;4.856;2022-10-13T02:56:20;11.20;99.90
36548;DHT22;22551;52.206;4.856;2022-10-13T03:01:24;11.20;99.90
36548;DHT22;22551;52.206;4.856;2022-10-13T03:06:26;11.20;99.90
36548;DHT22;22551;52.206;4.856;2022-10-13T03:11:28;11.20;99.90
36548;DHT22;22551;52.206;4.856;2022-10-13T03:16:32;11.20;99.90
36548;DHT22;22551;52.206;4.856;2022-10-13T03:21:35;11.30;99.90
36548;DHT22;22551;52.206;4.856;2022-10-13T03:26:38;11.30;99.90
36548;DHT22;22551;52.206;4.856;2022-10-13T03:31:41;11.30;99.90
36548;DHT22;22551;52.206;4.856;2022-10-13T03:36:43;11.30;99.90
36548;DHT22;22551;52.206;4.856;2022-10-13T03:41:45;11.30;99.90
36548;DHT22;22551;52.206;4.856;2022-10-13T03:46:49;11.40;99.90
36548;DHT22;22551;52.206;4.856;2022-10-13T03:51:51;11.40;99.90
36548;DHT22;22551;52.206;4.856;2022-10-13T03:56:53;11.50;99.90
36548;DHT22;22551;52.206;4.856;2022-10-13T04:01:56;11.50;99.90
36548;DHT22;22551;52.206;4.856;2022-10-13T04:06:58;11.60;99.90
36548;DHT22;22551;52.206;4.856;2022-10-13T04:12:03;11.50;99.90
36548;DHT22;22551;52.206;4.856;2022-10-13T04:17:07;11.50;99.90
36548;DHT22;22551;52.206;4.856;2022-10-13T04:22:09;11.50;99.90
36548;DHT22;22551;52.206;4.856;2022-10-13T04:27:12;11.50;99.90
36548;DHT22;22551;52.206;4.856;2022-10-13T04:32:17;11.50;99.90
36548;DHT22;22551;52.206;4.856;2022-10-13T04:37:20;11.60;99.90
36548;DHT22;22551;52.206;4.856;2022-10-13T04:42:23;11.70;99.90
36548;DHT22;22551;52.206;4.856;2022-10-13T04:47:30;11.70;99.90
36548;DHT22;22551;52.206;4.856;2022-10-13T04:52:33;11.80;99.90
36548;DHT22;22551;52.206;4.856;2022-10-13T04:57:35;11.80;99.90
36548;DHT22;22551;52.206;4.856;2022-10-13T05:02:39;11.80;99.90
36548;DHT22;22551;52.206;4.856;2022-10-13T05:07:43;11.80;99.90
36548;DHT22;22551;52.206;4.856;2022-10-13T05:12:46;11.80;99.90
36548;DHT22;22551;52.206;4.856;2022-10-13T05:17:50;11.90;99.90
36548;DHT22;22551;52.206;4.856;2022-10-13T05:22:55;11.90;99.90
36548;DHT22;22551;52.206;4.856;2022-10-13T05:27:59;11.90;99.90
36548;DHT22;22551;52.206;4.856;2022-10-13T05:33:03;12.00;99.90
36548;DHT22;22551;52.206;4.856;2022-10-13T05:38:05;12.00;99.90
36548;DHT22;22551;52.206;4.856;2022-10-13T05:43:08;12.00;99.90
36548;DHT22;22551;52.206;4.856;2022-10-13T05:48:11;12.00;99.90
36548;DHT22;22551;52.206;4.856;2022-10-13T05:53:14;12.10;99.90
36548;DHT22;22551;52.206;4.856;2022-10-13T05:58:16;12.10;99.90
36548;DHT22;22551;52.206;4.856;2022-10-13T06:03:22;12.10;99.90
36548;DHT22;22551;52.206;4.856;2022-10-13T06:08:24;12.20;99.90
36548;DHT22;22551;52.206;4.856;2022-10-13T06:13:26;12.20;99.90
36548;DHT22;22551;52.206;4.856;2022-10-13T06:18:33;12.20;99.90
36548;DHT22;22551;52.206;4.856;2022-10-13T06:23:35;12.20;99.90
36548;DHT22;22551;52.206;4.856;2022-10-13T06:28:37;12.20;99.90
36548;DHT22;22551;52.206;4.856;2022-10-13T06:33:41;12.20;99.90
36548;DHT22;22551;52.206;4.856;2022-10-13T06:38:43;12.20;99.90
36548;DHT22;22551;52.206;4.856;2022-10-13T06:43:46;12.20;99.90
36548;DHT22;22551;52.206;4.856;2022-10-13T06:48:50;12.20;99.90
36548;DHT22;22551;52.206;4.856;2022-10-13T06:53:54;12.30;99.90
36548;DHT22;22551;52.206;4.856;2022-10-13T06:58:57;12.30;99.90
36548;DHT22;22551;52.206;4.856;2022-10-13T07:04:01;12.30;99.90
36548;DHT22;22551;52.206;4.856;2022-10-13T07:09:04;12.30;99.90
36548;DHT22;22551;52.206;4.856;2022-10-13T07:14:07;12.30;99.90
36548;DHT22;22551;52.206;4.856;2022-10-13T07:19:10;12.40;99.90
36548;DHT22;22551;52.206;4.856;2022-10-13T07:24:13;12.40;99.90
36548;DHT22;22551;52.206;4.856;2022-10-13T07:29:15;12.40;99.90
36548;DHT22;22551;52.206;4.856;2022-10-13T07:34:19;12.50;99.90
36548;DHT22;22551;52.206;4.856;2022-10-13T07:39:22;12.60;99.90
36548;DHT22;22551;52.206;4.856;2022-10-13T07:44:24;12.70;99.90
36548;DHT22;22551;52.206;4.856;2022-10-13T07:49:28;12.80;99.90
36548;DHT22;22551;52.206;4.856;2022-10-13T07:54:31;12.90;99.90
36548;DHT22;22551;52.206;4.856;2022-10-13T07:59:34;13.10;99.90
36548;DHT22;22551;52.206;4.856;2022-10-13T08:04:37;13.30;99.90
36548;DHT22;22551;52.206;4.856;2022-10-13T08:09:40;13.50;99.90
36548;DHT22;22551;52.206;4.856;2022-10-13T08:14:42;13.70;99.90
36548;DHT22;22551;52.206;4.856;2022-10-13T08:19:49;13.60;99.90
36548;DHT22;22551;52.206;4.856;2022-10-13T08:24:51;13.70;99.90
36548;DHT22;22551;52.206;4.856;2022-10-13T08:29:54;13.60;99.90
36548;DHT22;22551;52.206;4.856;2022-10-13T08:34:57;13.60;99.90
36548;DHT22;22551;52.206;4.856;2022-10-13T08:39:59;13.60;99.90
36548;DHT22;22551;52.206;4.856;2022-10-13T08:45:05;13.60;99.90
36548;DHT22;22551;52.206;4.856;2022-10-13T08:50:14;13.60;99.90
36548;DHT22;22551;52.206;4.856;2022-10-13T08:55:28;13.70;99.90
36548;DHT22;22551;52.206;4.856;2022-10-13T09:00:32;13.80;99.90
36548;DHT22;22551;52.206;4.856;2022-10-13T09:05:40;13.90;99.90
36548;DHT22;22551;52.206;4.856;2022-10-13T09:10:48;13.80;99.90
36548;DHT22;22551;52.206;4.856;2022-10-13T09:15:50;13.90;99.90
36548;DHT22;22551;52.206;4.856;2022-10-13T09:21:15;13.80;99.90
36548;DHT22;22551;52.206;4.856;2022-10-13T09:26:22;13.90;99.90
36548;DHT22;22551;52.206;4.856;2022-10-13T09:31:27;13.90;99.90
36548;DHT22;22551;52.206;4.856;2022-10-13T09:36:31;13.90;99.90
36548;DHT22;22551;52.206;4.856;2022-10-13T09:41:34;13.80;99.90
36548;DHT22;22551;52.206;4.856;2022-10-13T09:46:46;13.80;99.90
36548;DHT22;22551;52.206;4.856;2022-10-13T09:51:51;13.80;99.90
36548;DHT22;22551;52.206;4.856;2022-10-13T09:56:56;13.80;99.90
36548;DHT22;22551;52.206;4.856;2022-10-13T10:02:10;13.90;99.90
36548;DHT22;22551;52.206;4.856;2022-10-13T10:07:24;13.90;99.90
36548;DHT22;22551;52.206;4.856;2022-10-13T10:12:30;14.10;99.90
36548;DHT22;22551;52.206;4.856;2022-10-13T10:17:39;14.20;99.90
36548;DHT22;22551;52.206;4.856;2022-10-13T10:22:50;14.30;99.90
36548;DHT22;22551;52.206;4.856;2022-10-13T10:28:09;14.30;99.90
36548;DHT22;22551;52.206;4.856;2022-10-13T10:33:42;14.20;99.90
36548;DHT22;22551;52.206;4.856;2022-10-13T10:38:55;14.30;99.90
36548;DHT22;22551;52.206;4.856;2022-10-13T10:44:01;14.50;99.90
36548;DHT22;22551;52.206;4.856;2022-10-13T10:49:12;14.40;99.90
36548;DHT22;22551;52.206;4.856;2022-10-13T10:54:25;14.50;99.90
36548;DHT22;22551;52.206;4.856;2022-10-13T10:59:46;14.40;99.90
36548;DHT22;22551;52.206;4.856;2022-10-13T11:04:52;14.30;99.90
36548;DHT22;22551;52.206;4.856;2022-10-13T11:10:18;14.30;99.90
36548;DHT22;22551;52.206;4.856;2022-10-13T11:15:24;14.20;99.90
36548;DHT22;22551;52.206;4.856;2022-10-13T11:20:56;14.30;99.90
36548;DHT22;22551;52.206;4.856;2022-10-13T11:26:26;14.30;99.90
36548;DHT22;22551;52.206;4.856;2022-10-13T11:31:51;13.90;99.90
36548;DHT22;22551;52.206;4.856;2022-10-13T11:36:57;13.90;99.90
36548;DHT22;22551;52.206;4.856;2022-10-13T11:42:20;13.90;99.90
36548;DHT22;22551;52.206;4.856;2022-10-13T11:47:53;13.90;99.90
36548;DHT22;22551;52.206;4.856;2022-10-13T11:53:13;13.90;99.90
36548;DHT22;22551;52.206;4.856;2022-10-13T11:58:21;13.90;99.90
36548;DHT22;22551;52.206;4.856;2022-10-13T12:03:29;13.90;99.90
36548;DHT22;22551;52.206;4.856;2022-10-13T12:08:34;13.80;99.90
36548;DHT22;22551;52.206;4.856;2022-10-13T12:13:38;13.50;99.90
36548;DHT22;22551;52.206;4.856;2022-10-13T12:18:41;13.50;99.90
36548;DHT22;22551;52.206;4.856;2022-10-13T12:23:44;13.50;99.90
36548;DHT22;22551;52.206;4.856;2022-10-13T12:28:51;13.30;99.90
36548;DHT22;22551;52.206;4.856;2022-10-13T12:33:55;13.20;99.90
36548;DHT22;22551;52.206;4.856;2022-10-13T12:39:00;13.20;99.90
36548;DHT22;22551;52.206;4.856;2022-10-13T12:44:07;13.30;99.90
36548;DHT22;22551;52.206;4.856;2022-10-13T12:49:15;13.20;99.90
36548;DHT22;22551;52.206;4.856;2022-10-13T12:54:22;13.10;99.90
36548;DHT22;22551;52.206;4.856;2022-10-13T12:59:29;13.10;99.90
36548;DHT22;22551;52.206;4.856;2022-10-13T13:04:42;13.00;99.90
36548;DHT22;22551;52.206;4.856;2022-10-13T13:09:59;13.00;99.90
36548;DHT22;22551;52.206;4.856;2022-10-13T13:15:34;13.00;99.90
36548;DHT22;22551;52.206;4.856;2022-10-13T13:20:37;12.90;99.90
36548;DHT22;22551;52.206;4.856;2022-10-13T13:25:40;12.90;99.90
36548;DHT22;22551;52.206;4.856;2022-10-13T13:30:43;12.90;99.90
36548;DHT22;22551;52.206;4.856;2022-10-13T13:35:46;12.70;99.90
36548;DHT22;22551;52.206;4.856;2022-10-13T13:40:49;12.70;99.90
36548;DHT22;22551;52.206;4.856;2022-10-13T13:45:52;12.70;99.90
36548;DHT22;22551;52.206;4.856;2022-10-13T13:50:54;12.70;99.90
36548;DHT22;22551;52.206;4.856;2022-10-13T13:55:57;12.80;99.90
36548;DHT22;22551;52.206;4.856;2022-10-13T14:01:00;12.70;99.90
36548;DHT22;22551;52.206;4.856;2022-10-13T14:06:03;12.50;99.90
36548;DHT22;22551;52.206;4.856;2022-10-13T14:11:06;12.40;99.90
36548;DHT22;22551;52.206;4.856;2022-10-13T14:16:15;12.40;99.90
36548;DHT22;22551;52.206;4.856;2022-10-13T14:21:18;12.30;99.90
36548;DHT22;22551;52.206;4.856;2022-10-13T14:26:20;12.40;99.90
36548;DHT22;22551;52.206;4.856;2022-10-13T14:31:25;12.40;99.90
36548;DHT22;22551;52.206;4.856;2022-10-13T14:36:27;12.30;99.90
36548;DHT22;22551;52.206;4.856;2022-10-13T14:41:29;12.20;99.90
36548;DHT22;22551;52.206;4.856;2022-10-13T14:46:33;12.20;99.90
36548;DHT22;22551;52.206;4.856;2022-10-13T14:51:35;12.10;99.90
36548;DHT22;22551;52.206;4.856;2022-10-13T14:56:37;12.00;99.90
36548;DHT22;22551;52.206;4.856;2022-10-13T15:01:41;12.10;99.90
36548;DHT22;22551;52.206;4.856;2022-10-13T15:06:44;12.00;99.90
36548;DHT22;22551;52.206;4.856;2022-10-13T15:11:46;12.00;99.90
36548;DHT22;22551;52.206;4.856;2022-10-13T15:16:49;12.00;99.90
36548;DHT22;22551;52.206;4.856;2022-10-13T15:21:52;12.00;99.90
36548;DHT22;22551;52.206;4.856;2022-10-13T15:26:54;12.00;99.90
36548;DHT22;22551;52.206;4.856;2022-10-13T15:32:07;12.00;99.90
36548;DHT22;22551;52.206;4.856;2022-10-13T15:37:10;12.10;99.90
36548;DHT22;22551;52.206;4.856;2022-10-13T15:42:13;12.10;99.90
36548;DHT22;22551;52.206;4.856;2022-10-13T15:47:17;12.20;99.90
36548;DHT22;22551;52.206;4.856;2022-10-13T15:52:19;12.30;99.90
36548;DHT22;22551;52.206;4.856;2022-10-13T15:57:21;12.30;99.90
36548;DHT22;22551;52.206;4.856;2022-10-13T16:02:24;12.40;99.90
36548;DHT22;22551;52.206;4.856;2022-10-13T16:07:27;12.30;99.90
36548;DHT22;22551;52.206;4.856;2022-10-13T16:12:30;12.20;99.90
36548;DHT22;22551;52.206;4.856;2022-10-13T16:17:34;12.20;99.90
36548;DHT22;22551;52.206;4.856;2022-10-13T16:22:36;12.10;99.90
36548;DHT22;22551;52.206;4.856;2022-10-13T16:27:38;12.10;99.90
36548;DHT22;22551;52.206;4.856;2022-10-13T16:32:42;12.10;99.90
36548;DHT22;22551;52.206;4.856;2022-10-13T16:37:44;12.10;99.90
36548;DHT22;22551;52.206;4.856;2022-10-13T16:42:46;12.00;99.90
36548;DHT22;22551;52.206;4.856;2022-10-13T16:47:50;12.00;99.90
36548;DHT22;22551;52.206;4.856;2022-10-13T16:52:53;12.00;99.90
36548;DHT22;22551;52.206;4.856;2022-10-13T16:57:55;12.00;99.90
36548;DHT22;22551;52.206;4.856;2022-10-13T17:02:58;11.90;99.90
36548;DHT22;22551;52.206;4.856;2022-10-13T17:08:01;11.80;99.90
36548;DHT22;22551;52.206;4.856;2022-10-13T17:13:03;11.70;99.90
36548;DHT22;22551;52.206;4.856;2022-10-13T17:18:06;11.70;99.90
36548;DHT22;22551;52.206;4.856;2022-10-13T17:23:08;11.70;99.90
36548;DHT22;22551;52.206;4.856;2022-10-13T17:28:10;11.70;99.90
36548;DHT22;22551;52.206;4.856;2022-10-13T17:33:14;11.70;99.90
36548;DHT22;22551;52.206;4.856;2022-10-13T17:38:16;11.60;99.90
36548;DHT22;22551;52.206;4.856;2022-10-13T17:43:19;11.50;99.90
36548;DHT22;22551;52.206;4.856;2022-10-13T17:48:22;11.50;99.90
36548;DHT22;22551;52.206;4.856;2022-10-13T17:53:24;11.40;99.90
36548;DHT22;22551;52.206;4.856;2022-10-13T17:58:27;11.30;99.90
36548;DHT22;22551;52.206;4.856;2022-10-13T18:03:31;11.20;99.90
36548;DHT22;22551;52.206;4.856;2022-10-13T18:08:33;11.00;99.90
36548;DHT22;22551;52.206;4.856;2022-10-13T18:13:35;10.90;99.90
36548;DHT22;22551;52.206;4.856;2022-10-13T18:18:39;10.80;99.90
36548;DHT22;22551;52.206;4.856;2022-10-13T18:23:43;10.60;99.90
36548;DHT22;22551;52.206;4.856;2022-10-13T18:28:47;10.60;99.90
36548;DHT22;22551;52.206;4.856;2022-10-13T18:33:52;10.40;99.90
36548;DHT22;22551;52.206;4.856;2022-10-13T18:38:59;10.30;99.90
36548;DHT22;22551;52.206;4.856;2022-10-13T18:44:03;10.30;99.90
36548;DHT22;22551;52.206;4.856;2022-10-13T18:49:09;10.20;99.90
36548;DHT22;22551;52.206;4.856;2022-10-13T18:54:12;10.20;99.90
36548;DHT22;22551;52.206;4.856;2022-10-13T18:59:15;10.10;99.90
36548;DHT22;22551;52.206;4.856;2022-10-13T19:04:19;10.10;99.90
36548;DHT22;22551;52.206;4.856;2022-10-13T19:09:21;10.00;99.90
36548;DHT22;22551;52.206;4.856;2022-10-13T19:14:25;10.00;99.90
36548;DHT22;22551;52.206;4.856;2022-10-13T19:19:28;9.90;99.90
36548;DHT22;22551;52.206;4.856;2022-10-13T19:24:31;9.80;99.90
36548;DHT22;22551;52.206;4.856;2022-10-13T19:29:36;9.80;99.90
36548;DHT22;22551;52.206;4.856;2022-10-13T19:34:42;9.70;99.90
36548;DHT22;22551;52.206;4.856;2022-10-13T19:39:44;9.70;99.90
36548;DHT22;22551;52.206;4.856;2022-10-13T19:44:46;9.70;99.90
36548;DHT22;22551;52.206;4.856;2022-10-13T19:49:49;9.60;99.90
36548;DHT22;22551;52.206;4.856;2022-10-13T19:54:52;9.60;99.90
36548;DHT22;22551;52.206;4.856;2022-10-13T19:59:54;9.50;99.90
36548;DHT22;22551;52.206;4.856;2022-10-13T20:04:57;9.50;99.90
36548;DHT22;22551;52.206;4.856;2022-10-13T20:09:59;9.40;99.90
36548;DHT22;22551;52.206;4.856;2022-10-13T20:15:01;9.40;99.90
36548;DHT22;22551;52.206;4.856;2022-10-13T20:20:06;9.30;99.90
36548;DHT22;22551;52.206;4.856;2022-10-13T20:25:09;9.30;99.90
36548;DHT22;22551;52.206;4.856;2022-10-13T20:30:14;9.20;99.90
36548;DHT22;22551;52.206;4.856;2022-10-13T20:35:17;9.20;99.90
36548;DHT22;22551;52.206;4.856;2022-10-13T20:40:20;9.10;99.90
36548;DHT22;22551;52.206;4.856;2022-10-13T20:45:22;9.10;99.90
36548;DHT22;22551;52.206;4.856;2022-10-13T20:50:25;9.10;99.90
36548;DHT22;22551;52.206;4.856;2022-10-13T20:55:28;9.10;99.90
36548;DHT22;22551;52.206;4.856;2022-10-13T21:00:30;9.10;99.90
36548;DHT22;22551;52.206;4.856;2022-10-13T21:05:33;9.10;99.90
36548;DHT22;22551;52.206;4.856;2022-10-13T21:10:35;9.00;99.90
36548;DHT22;22551;52.206;4.856;2022-10-13T21:15:39;9.00;99.90
36548;DHT22;22551;52.206;4.856;2022-10-13T21:20:43;9.00;99.90
36548;DHT22;22551;52.206;4.856;2022-10-13T21:25:46;8.90;99.90
36548;DHT22;22551;52.206;4.856;2022-10-13T21:30:58;8.90;99.90
36548;DHT22;22551;52.206;4.856;2022-10-13T21:36:04;8.90;99.90
36548;DHT22;22551;52.206;4.856;2022-10-13T21:41:08;8.90;99.90
36548;DHT22;22551;52.206;4.856;2022-10-13T21:46:13;9.00;99.90
36548;DHT22;22551;52.206;4.856;2022-10-13T21:51:19;9.00;99.90
36548;DHT22;22551;52.206;4.856;2022-10-13T21:56:23;8.90;99.90
36548;DHT22;22551;52.206;4.856;2022-10-13T22:01:27;8.90;99.90
36548;DHT22;22551;52.206;4.856;2022-10-13T22:06:31;8.90;99.90
36548;DHT22;22551;52.206;4.856;2022-10-13T22:11:35;8.80;99.90
36548;DHT22;22551;52.206;4.856;2022-10-13T22:16:40;8.80;99.90
36548;DHT22;22551;52.206;4.856;2022-10-13T22:21:46;8.80;99.90
36548;DHT22;22551;52.206;4.856;2022-10-13T22:26:49;8.70;99.90
36548;DHT22;22551;52.206;4.856;2022-10-13T22:31:54;8.60;99.90
36548;DHT22;22551;52.206;4.856;2022-10-13T22:36:59;8.60;99.90
36548;DHT22;22551;52.206;4.856;2022-10-13T22:42:01;8.60;99.90
36548;DHT22;22551;52.206;4.856;2022-10-13T22:47:03;8.60;99.90
36548;DHT22;22551;52.206;4.856;2022-10-13T22:52:06;8.60;99.90
36548;DHT22;22551;52.206;4.856;2022-10-13T22:57:08;8.60;99.90
36548;DHT22;22551;52.206;4.856;2022-10-13T23:02:10;8.50;99.90
36548;DHT22;22551;52.206;4.856;2022-10-13T23:07:14;8.50;99.90
36548;DHT22;22551;52.206;4.856;2022-10-13T23:12:16;8.50;99.90
36548;DHT22;22551;52.206;4.856;2022-10-13T23:17:18;8.50;99.90
36548;DHT22;22551;52.206;4.856;2022-10-13T23:22:22;8.50;99.90
36548;DHT22;22551;52.206;4.856;2022-10-13T23:27:24;8.50;99.90
36548;DHT22;22551;52.206;4.856;2022-10-13T23:32:26;8.40;99.90
36548;DHT22;22551;52.206;4.856;2022-10-13T23:37:30;8.40;99.90
36548;DHT22;22551;52.206;4.856;2022-10-13T23:42:32;8.40;99.90
36548;DHT22;22551;52.206;4.856;2022-10-13T23:47:34;8.40;99.90
36548;DHT22;22551;52.206;4.856;2022-10-13T23:52:37;8.40;99.90
36548;DHT22;22551;52.206;4.856;2022-10-13T23:57:39;8.30;99.90
